Pic — WDB2355 — position and weather

sailwx.info

Track history (hours):
 
Tides and Currents Weather Stations Pressure Air Temp Water Temp Dewpoint Dewpoint Depression Visibility Wind Speed Wind Dir Waves Ship Positions

Pic

Owner: MARTIN OPERATING PARTNERSHIP LP, La Porte, TX. More information available from US FCC via Universal Licensing System and Coast Guard Vessel Documentation Center.

Last reported at 2017-Oct-15 00:35 UTC. Time now 2017-Oct-18 23:51 UTC.
Position N 29°30' W 094°52'.

Length 14 m; draft 2.8 m.

Type: Towing. MMSI: 366875020.

Date/timePositionNaut miles runAvg speedWind from/ knotsBaromVisibWave heightAir tempDewpointWater temp
2017-Oct-15 00:35N 29°30' W 094°52'1 7.0
2017-Oct-15 00:29N 29°31' W 094°53'3 6.7
2017-Oct-15 00:00N 29°33' W 094°55'3 6.6
2017-Oct-14 23:30N 29°36' W 094°57'3 6.4
2017-Oct-14 23:00N 29°39' W 094°58'4 6.5
2017-Oct-14 22:24N 29°42' W 095°01'2 5.6
2017-Oct-14 22:00N 29°44' W 095°03'4 4.1
2017-Oct-14 20:56N 29°44' W 095°08'0 0.2
2017-Oct-14 20:29N 29°44' W 095°08'0 0.0
2017-Oct-14 15:30N 29°44' W 095°08'0 0.0
2017-Oct-14 14:59N 29°44' W 095°08'0 0.2
2017-Oct-14 14:27N 29°44' W 095°08'2 4.8
2017-Oct-14 14:01N 29°45' W 095°06'4 0.4
2017-Oct-14 04:43N 29°44' W 095°02'2 5.8
2017-Oct-14 04:25N 29°42' W 095°01'3 5.8
2017-Oct-14 03:52N 29°40' W 094°58'2 6.2
2017-Oct-14 03:30N 29°38' W 094°58'3 6.6
2017-Oct-14 03:00N 29°35' W 094°56'3 6.7
2017-Oct-14 02:30N 29°32' W 094°54'2 0.0
2017-Oct-12 13:13N 29°31' W 094°53'1 6.5
2017-Oct-12 13:00N 29°32' W 094°54'3 6.1
2017-Oct-12 12:30N 29°34' W 094°56'3 6.3
2017-Oct-12 12:00N 29°37' W 094°58'3 6.5
2017-Oct-12 11:30N 29°40' W 094°59'3 6.1
2017-Oct-12 11:00N 29°42' W 095°01'1 2.6
2017-Oct-12 10:29N 29°42' W 095°03'0 0.1
2017-Oct-12 10:00N 29°42' W 095°03'0 0.0
2017-Oct-12 09:30N 29°42' W 095°03'0 0.0
2017-Oct-12 08:59N 29°42' W 095°03'0 0.0
2017-Oct-12 08:30N 29°42' W 095°03'0 0.0
2017-Oct-12 08:00N 29°42' W 095°03'0 0.0
2017-Oct-12 07:28N 29°42' W 095°03'0 0.4
2017-Oct-12 07:00N 29°43' W 095°03'2 2.9
2017-Oct-12 06:29N 29°44' W 095°01'3 5.6
2017-Oct-12 06:00N 29°45' W 095°04'2 0.7
2017-Oct-12 03:42N 29°46' W 095°06'2 5.1
2017-Oct-12 03:17N 29°44' W 095°07'0 1.3
2017-Oct-12 03:00N 29°44' W 095°07'0 0.0
2017-Oct-11 22:25N 29°44' W 095°07'2 3.6
2017-Oct-11 21:44N 29°46' W 095°05'3 0.5
2017-Oct-11 16:32N 29°44' W 095°03'  
Track history (hours):
 
Tides and Currents Weather Stations Pressure Air Temp Water Temp Dewpoint Dewpoint Depression Visibility Wind Speed Wind Dir Waves Ship Positions

Pic

Owner: MARTIN OPERATING PARTNERSHIP LP, La Porte, TX. More information available from US FCC via Universal Licensing System and Coast Guard Vessel Documentation Center.

Last reported at 2017-Oct-15 00:35 UTC. Time now 2017-Oct-18 23:51 UTC.
Position N 29°30' W 094°52'.

Length 14 m; draft 2.8 m.

Type: Towing. MMSI: 366875020.

Date/timePositionNaut miles runAvg speedWind from/ knotsBaromVisibWave heightAir tempDewpointWater temp
2017-Oct-15 00:35N 29°30' W 094°52'1 7.0
2017-Oct-15 00:29N 29°31' W 094°53'3 6.7
2017-Oct-15 00:00N 29°33' W 094°55'3 6.6
2017-Oct-14 23:30N 29°36' W 094°57'3 6.4
2017-Oct-14 23:00N 29°39' W 094°58'4 6.5
2017-Oct-14 22:24N 29°42' W 095°01'2 5.6
2017-Oct-14 22:00N 29°44' W 095°03'4 4.1
2017-Oct-14 20:56N 29°44' W 095°08'0 0.2
2017-Oct-14 20:29N 29°44' W 095°08'0 0.0
2017-Oct-14 15:30N 29°44' W 095°08'0 0.0
2017-Oct-14 14:59N 29°44' W 095°08'0 0.2
2017-Oct-14 14:27N 29°44' W 095°08'2 4.8
2017-Oct-14 14:01N 29°45' W 095°06'4 0.4
2017-Oct-14 04:43N 29°44' W 095°02'2 5.8
2017-Oct-14 04:25N 29°42' W 095°01'3 5.8
2017-Oct-14 03:52N 29°40' W 094°58'2 6.2
2017-Oct-14 03:30N 29°38' W 094°58'3 6.6
2017-Oct-14 03:00N 29°35' W 094°56'3 6.7
2017-Oct-14 02:30N 29°32' W 094°54'2 0.0
2017-Oct-12 13:13N 29°31' W 094°53'1 6.5
2017-Oct-12 13:00N 29°32' W 094°54'3 6.1
2017-Oct-12 12:30N 29°34' W 094°56'3 6.3
2017-Oct-12 12:00N 29°37' W 094°58'3 6.5
2017-Oct-12 11:30N 29°40' W 094°59'3 6.1
2017-Oct-12 11:00N 29°42' W 095°01'1 2.6
2017-Oct-12 10:29N 29°42' W 095°03'0 0.1
2017-Oct-12 10:00N 29°42' W 095°03'0 0.0
2017-Oct-12 09:30N 29°42' W 095°03'0 0.0
2017-Oct-12 08:59N 29°42' W 095°03'0 0.0
2017-Oct-12 08:30N 29°42' W 095°03'0 0.0
2017-Oct-12 08:00N 29°42' W 095°03'0 0.0
2017-Oct-12 07:28N 29°42' W 095°03'0 0.4
2017-Oct-12 07:00N 29°43' W 095°03'2 2.9
2017-Oct-12 06:29N 29°44' W 095°01'3 5.6
2017-Oct-12 06:00N 29°45' W 095°04'2 0.7
2017-Oct-12 03:42N 29°46' W 095°06'2 5.1
2017-Oct-12 03:17N 29°44' W 095°07'0 1.3
2017-Oct-12 03:00N 29°44' W 095°07'0 0.0
2017-Oct-11 22:25N 29°44' W 095°07'2 3.6
2017-Oct-11 21:44N 29°46' W 095°05'3 0.5
2017-Oct-11 16:32N 29°44' W 095°03'  

Dump ship's entire track history